Time;durP1;ratioP1;P1;durP2;ratioP2;P2;SDS_P1;SDS_P2;PMS_P1;PMS_P2;Temp;Humidity;BMP_temperature;BMP_pressure;BME280_temperature;BME280_humidity;BME280_pressure;Samples;Min_cycle;Max_cycle;Signal;HPM_P1;HPM_P2
2023/10/09 00:00:50;;;;;;;;;;;17.80;55.10;;;;;;5013677;28;84946;-47
2023/10/09 00:03:17;;;;;;;;;;;17.80;55.10;;;;;;5015404;28;82107;-55
2023/10/09 00:05:46;;;;;;;;;;;17.70;55.10;;;;;;5013068;28;83899;-51
2023/10/09 00:08:21;;;;;;;;;;;17.80;55.10;;;;;;5013338;28;82266;-54
2023/10/09 00:10:53;;;;;;;;;;;17.70;55.10;;;;;;5016527;28;81935;-53
2023/10/09 00:13:29;;;;;;;;;;;17.70;55.10;;;;;;5012651;28;83840;-50
2023/10/09 00:15:59;;;;;;;;;;;17.70;55.10;;;;;;5014463;28;83846;-49
2023/10/09 00:18:29;;;;;;;;;;;17.70;55.10;;;;;;5013010;28;82685;-54
2023/10/09 00:21:00;;;;;;;;;;;17.70;55.10;;;;;;5015227;28;83415;-45
2023/10/09 00:23:26;;;;;;;;;;;17.80;55.20;;;;;;5014509;28;82965;-51
2023/10/09 00:28:52;;;;;;;;;;;17.70;55.10;;;;;;4984734;28;83880;-49
2023/10/09 00:31:33;;;;;;;;;;;17.70;55.10;;;;;;5008949;28;82138;-48
2023/10/09 00:34:19;;;;;;;;;;;17.70;55.20;;;;;;5018991;28;83040;-49
2023/10/09 00:36:50;;;;;;;;;;;17.70;55.20;;;;;;5018036;28;82556;-46
2023/10/09 00:39:23;;;;;;;;;;;17.70;55.20;;;;;;5023236;28;82093;-50
2023/10/09 00:41:48;;;;;;;;;;;17.80;55.20;;;;;;5015871;28;82970;-49
2023/10/09 00:44:14;;;;;;;;;;;17.80;55.20;;;;;;5020249;28;83100;-55
2023/10/09 00:46:42;;;;;;;;;;;17.70;55.20;;;;;;5025146;28;85503;-51
2023/10/09 00:49:10;;;;;;;;;;;17.80;55.20;;;;;;5015306;28;85158;-55
2023/10/09 00:51:38;;;;;;;;;;;17.70;55.20;;;;;;5019407;28;82161;-53
2023/10/09 00:54:08;;;;;;;;;;;17.70;55.20;;;;;;5016686;28;82476;-50
2023/10/09 00:56:43;;;;;;;;;;;17.70;55.20;;;;;;5016956;28;83168;-47
2023/10/09 00:59:10;;;;;;;;;;;17.70;55.20;;;;;;5019379;28;81958;-49
2023/10/09 01:01:35;;;;;;;;;;;17.70;55.20;;;;;;5016662;28;82658;-54
2023/10/09 01:04:14;;;;;;;;;;;17.70;55.80;;;;;;5016797;28;83057;-53
2023/10/09 01:06:46;;;;;;;;;;;17.70;55.20;;;;;;5019064;28;81190;-49
2023/10/09 01:09:13;;;;;;;;;;;17.70;55.30;;;;;;5016103;28;84452;-49
2023/10/09 01:11:49;;;;;;;;;;;17.70;55.30;;;;;;5017147;28;82182;-47
2023/10/09 01:14:21;;;;;;;;;;;17.70;55.30;;;;;;5018533;28;82870;-51
2023/10/09 01:16:47;;;;;;;;;;;17.70;55.30;;;;;;5015894;28;83501;-43
2023/10/09 01:19:19;;;;;;;;;;;17.70;55.30;;;;;;5016863;28;82071;-46
2023/10/09 01:21:45;;;;;;;;;;;17.70;55.30;;;;;;5018710;28;82395;-51
2023/10/09 01:24:10;;;;;;;;;;;17.70;55.30;;;;;;5014869;28;84554;-51
2023/10/09 01:26:39;;;;;;;;;;;17.60;55.30;;;;;;5021438;28;82083;-48
2023/10/09 01:29:14;;;;;;;;;;;17.70;55.30;;;;;;5016313;28;82794;-47
2023/10/09 01:32:00;;;;;;;;;;;17.70;55.30;;;;;;5015384;28;81333;-46
2023/10/09 01:34:45;;;;;;;;;;;17.70;55.30;;;;;;5017356;28;82042;-48
2023/10/09 01:37:18;;;;;;;;;;;17.70;55.30;;;;;;5016741;28;84489;-48
2023/10/09 01:39:57;;;;;;;;;;;17.70;55.30;;;;;;5014602;28;83452;-50
2023/10/09 01:42:27;;;;;;;;;;;17.60;55.30;;;;;;5016725;28;85070;-47
2023/10/09 01:44:53;;;;;;;;;;;17.70;55.40;;;;;;5015104;28;83283;-52
2023/10/09 01:47:21;;;;;;;;;;;17.70;55.40;;;;;;5018029;28;82077;-49
2023/10/09 01:49:49;;;;;;;;;;;17.70;55.40;;;;;;5017842;28;82860;-45
2023/10/09 01:52:18;;;;;;;;;;;17.60;55.40;;;;;;5016972;28;82545;-49
2023/10/09 01:54:48;;;;;;;;;;;17.60;55.30;;;;;;5017154;28;83956;-50
2023/10/09 01:57:15;;;;;;;;;;;17.60;55.30;;;;;;5015004;28;84065;-45
2023/10/09 01:59:44;;;;;;;;;;;17.60;55.40;;;;;;5017949;28;82090;-47
2023/10/09 02:04:54;;;;;;;;;;;17.60;55.30;;;;;;5010889;28;83024;-48
2023/10/09 02:07:27;;;;;;;;;;;17.60;55.40;;;;;;5016757;28;82180;-51
2023/10/09 02:09:54;;;;;;;;;;;17.60;55.40;;;;;;5017835;28;84072;-47
2023/10/09 02:12:21;;;;;;;;;;;17.60;55.40;;;;;;5020620;28;82930;-49
2023/10/09 02:14:47;;;;;;;;;;;17.60;55.40;;;;;;5014732;28;82101;-49
2023/10/09 02:17:28;;;;;;;;;;;17.60;55.40;;;;;;5017478;28;82752;-49
2023/10/09 02:19:54;;;;;;;;;;;17.60;55.30;;;;;;5018106;28;82048;-50
2023/10/09 02:22:20;;;;;;;;;;;17.50;55.30;;;;;;5015026;28;82589;-48
2023/10/09 02:27:19;;;;;;;;;;;17.60;55.30;;;;;;5015936;28;82092;-52
2023/10/09 02:29:47;;;;;;;;;;;17.50;55.30;;;;;;5014259;28;84527;-53
2023/10/09 02:32:14;;;;;;;;;;;17.50;55.30;;;;;;5017018;28;83167;-49
2023/10/09 02:34:40;;;;;;;;;;;17.50;55.90;;;;;;5017543;28;81983;-50
2023/10/09 02:37:06;;;;;;;;;;;17.50;55.30;;;;;;5016588;28;83391;-49
2023/10/09 02:39:43;;;;;;;;;;;17.60;55.40;;;;;;5015585;28;81992;-49
2023/10/09 02:44:40;;;;;;;;;;;17.50;55.30;;;;;;5017095;28;83385;-53
2023/10/09 02:47:11;;;;;;;;;;;17.50;55.30;;;;;;5015495;28;81404;-51
2023/10/09 02:49:40;;;;;;;;;;;17.50;55.30;;;;;;5013838;28;83523;-50
2023/10/09 02:52:07;;;;;;;;;;;17.50;55.30;;;;;;5013878;28;83030;-52
2023/10/09 02:54:38;;;;;;;;;;;17.50;55.20;;;;;;5015587;28;82996;-51
2023/10/09 02:57:07;;;;;;;;;;;17.50;55.20;;;;;;5050941;27;86624;-50
2023/10/09 02:59:38;;;;;;;;;;;17.50;55.20;;;;;;5014118;28;82020;-48
2023/10/09 03:02:04;;;;;;;;;;;17.50;55.20;;;;;;5013047;28;82659;-50
2023/10/09 03:04:29;;;;;;;;;;;17.50;55.20;;;;;;5016248;28;82194;-47
2023/10/09 03:06:57;;;;;;;;;;;17.50;55.30;;;;;;5015653;28;82077;-51
2023/10/09 03:09:28;;;;;;;;;;;17.50;55.20;;;;;;5014976;28;82450;-46
2023/10/09 03:12:01;;;;;;;;;;;17.50;55.30;;;;;;5017574;28;84234;-48
2023/10/09 03:14:28;;;;;;;;;;;17.50;55.20;;;;;;5015381;28;82177;-42
2023/10/09 03:16:54;;;;;;;;;;;17.50;55.30;;;;;;5019544;28;84072;-49
2023/10/09 03:19:19;;;;;;;;;;;17.50;55.30;;;;;;5014081;28;83048;-52
2023/10/09 03:21:46;;;;;;;;;;;17.50;55.30;;;;;;5016751;28;83658;-46
2023/10/09 03:24:12;;;;;;;;;;;17.40;55.20;;;;;;5013324;28;84320;-49
2023/10/09 03:26:37;;;;;;;;;;;17.40;55.20;;;;;;5016862;28;82176;-50
2023/10/09 03:29:06;;;;;;;;;;;17.40;55.90;;;;;;5014569;28;82056;-50
2023/10/09 03:31:34;;;;;;;;;;;17.40;55.30;;;;;;5014967;28;83015;-52
2023/10/09 03:34:00;;;;;;;;;;;17.40;55.30;;;;;;5014618;28;82609;-49
2023/10/09 03:36:30;;;;;;;;;;;17.40;55.30;;;;;;5017517;28;81924;-50
2023/10/09 03:38:57;;;;;;;;;;;17.40;55.30;;;;;;5024115;28;86001;-50
2023/10/09 03:41:26;;;;;;;;;;;17.40;55.30;;;;;;5015365;28;83991;-49
2023/10/09 03:43:51;;;;;;;;;;;17.40;55.30;;;;;;5014539;28;85856;-52
2023/10/09 03:46:32;;;;;;;;;;;17.30;55.30;;;;;;5014039;28;82185;-54
2023/10/09 03:49:00;;;;;;;;;;;17.40;55.30;;;;;;5014244;28;84401;-52
2023/10/09 03:51:27;;;;;;;;;;;17.30;55.30;;;;;;5014172;28;85471;-44
2023/10/09 03:53:55;;;;;;;;;;;17.40;55.30;;;;;;5016429;28;82074;-50
2023/10/09 03:56:21;;;;;;;;;;;17.40;55.30;;;;;;5013001;28;84637;-46
2023/10/09 03:58:50;;;;;;;;;;;17.40;55.40;;;;;;5016000;28;82549;-45
2023/10/09 04:01:28;;;;;;;;;;;17.30;55.30;;;;;;5017935;28;81758;-47
2023/10/09 04:04:03;;;;;;;;;;;17.30;55.30;;;;;;5016093;28;83111;-49
2023/10/09 04:06:32;;;;;;;;;;;17.30;55.30;;;;;;5018209;28;82019;-49
2023/10/09 04:08:58;;;;;;;;;;;17.30;55.30;;;;;;5018580;28;84084;-54
2023/10/09 04:11:24;;;;;;;;;;;17.30;55.30;;;;;;5016494;28;83078;-53
2023/10/09 04:13:53;;;;;;;;;;;17.30;55.30;;;;;;5016702;28;82070;-49
2023/10/09 04:19:22;;;;;;;;;;;17.30;55.30;;;;;;5019976;28;82259;-52
2023/10/09 04:21:44;;;;;;;;;;;17.30;55.20;;;;;;5018810;28;82439;-50
2023/10/09 04:26:44;;;;;;;;;;;17.20;55.20;;;;;;5019708;28;81808;-50
2023/10/09 04:29:37;;;;;;;;;;;17.30;55.30;;;;;;5050306;27;85077;-49
2023/10/09 04:32:03;;;;;;;;;;;17.30;55.30;;;;;;5017717;28;83285;-50
2023/10/09 04:34:28;;;;;;;;;;;17.20;55.20;;;;;;5016993;28;83282;-54
2023/10/09 04:37:00;;;;;;;;;;;17.30;55.20;;;;;;5017861;28;86227;-51
2023/10/09 04:47:37;;;;;;;;;;;17.20;55.00;;;;;;5017723;28;82961;-55
2023/10/09 04:50:11;;;;;;;;;;;17.20;55.00;;;;;;5020441;28;84118;-49
2023/10/09 05:03:04;;;;;;;;;;;17.10;55.60;;;;;;5014750;28;82586;-55
2023/10/09 05:11:14;;;;;;;;;;;17.10;54.90;;;;;;5017992;28;82392;-50
2023/10/09 05:19:06;;;;;;;;;;;17.10;54.90;;;;;;5011329;28;83531;-50
2023/10/09 05:26:50;;;;;;;;;;;17.10;54.90;;;;;;5012095;28;83041;-48
2023/10/09 05:29:34;;;;;;;;;;;17.10;54.90;;;;;;5009400;28;84307;-46
2023/10/09 05:37:33;;;;;;;;;;;17.00;54.70;;;;;;5015518;28;82040;-55
2023/10/09 06:03:48;;;;;;;;;;;17.00;54.20;;;;;;5014806;28;82540;-50
2023/10/09 06:06:46;;;;;;;;;;;17.00;54.20;;;;;;5016490;28;82210;-53
2023/10/09 06:09:52;;;;;;;;;;;17.00;54.20;;;;;;5014169;28;83779;-48
2023/10/09 06:19:43;;;;;;;;;;;17.00;54.10;;;;;;5018099;28;84299;-52
2023/10/09 06:28:01;;;;;;;;;;;17.00;54.00;;;;;;5008884;28;81960;-47
2023/10/09 06:30:23;;;;;;;;;;;17.00;54.00;;;;;;5011879;28;82046;-55
2023/10/09 06:35:23;;;;;;;;;;;17.00;54.00;;;;;;5009278;28;82071;-50
2023/10/09 06:45:54;;;;;;;;;;;17.00;54.00;;;;;;5012008;28;84982;-52
2023/10/09 06:58:57;;;;;;;;;;;17.00;54.10;;;;;;5016831;28;82456;-50
2023/10/09 07:01:39;;;;;;;;;;;16.90;53.80;;;;;;5017263;28;84815;-54
2023/10/09 07:14:32;;;;;;;;;;;17.00;53.80;;;;;;5013673;28;82061;-46
2023/10/09 07:17:00;;;;;;;;;;;17.00;53.80;;;;;;5017827;28;82013;-49
2023/10/09 07:24:49;;;;;;;;;;;16.90;53.50;;;;;;5010852;28;81969;-53
2023/10/09 07:27:43;;;;;;;;;;;17.00;53.60;;;;;;5017271;28;83412;-51
2023/10/09 07:38:35;;;;;;;;;;;16.90;53.10;;;;;;5020819;28;83060;-58
2023/10/09 07:43:39;;;;;;;;;;;16.90;53.10;;;;;;5017071;28;82410;-55
2023/10/09 07:48:48;;;;;;;;;;;16.90;53.10;;;;;;5020000;28;82314;-49
2023/10/09 07:51:14;;;;;;;;;;;16.90;53.10;;;;;;5020115;28;83499;-54
2023/10/09 07:53:44;;;;;;;;;;;16.90;53.00;;;;;;5018481;28;82593;-45
2023/10/09 07:56:13;;;;;;;;;;;16.90;53.20;;;;;;5018626;28;85724;-50
2023/10/09 07:58:46;;;;;;;;;;;16.90;53.20;;;;;;5021746;28;82084;-48
2023/10/09 08:04:13;;;;;;;;;;;16.90;53.20;;;;;;4995153;28;83478;-58
2023/10/09 08:06:44;;;;;;;;;;;16.90;53.30;;;;;;5015626;28;82902;-50
2023/10/09 08:19:56;;;;;;;;;;;16.90;53.30;;;;;;5017393;28;82080;-55
2023/10/09 08:24:56;;;;;;;;;;;16.90;53.10;;;;;;5015018;28;82165;-59
2023/10/09 08:32:42;;;;;;;;;;;16.90;53.40;;;;;;5010556;28;82195;-50
2023/10/09 08:35:26;;;;;;;;;;;16.90;53.30;;;;;;5015724;28;81991;-50
2023/10/09 08:37:52;;;;;;;;;;;16.90;53.30;;;;;;5018123;28;82069;-53
2023/10/09 08:40:21;;;;;;;;;;;16.90;53.30;;;;;;5017250;28;82446;-54
2023/10/09 08:42:53;;;;;;;;;;;16.90;53.30;;;;;;5018207;28;83071;-52
2023/10/09 08:45:27;;;;;;;;;;;16.90;53.40;;;;;;5008357;28;88205;-49
2023/10/09 08:47:56;;;;;;;;;;;16.90;53.40;;;;;;5012149;28;86356;-51
2023/10/09 08:50:21;;;;;;;;;;;16.90;53.40;;;;;;5018204;28;87286;-48
2023/10/09 08:52:51;;;;;;;;;;;16.90;53.50;;;;;;5010751;28;89388;-47
2023/10/09 08:55:17;;;;;;;;;;;16.90;53.30;;;;;;5008680;28;88123;-52
2023/10/09 08:57:46;;;;;;;;;;;16.90;53.30;;;;;;5015833;28;87841;-59
2023/10/09 09:00:33;;;;;;;;;;;16.90;53.40;;;;;;5014982;28;89718;-51
2023/10/09 09:03:00;;;;;;;;;;;16.90;53.40;;;;;;5014577;28;89038;-48
2023/10/09 09:05:28;;;;;;;;;;;16.90;53.40;;;;;;5011544;28;88343;-50
2023/10/09 09:07:59;;;;;;;;;;;16.90;53.50;;;;;;5015500;28;87170;-49
2023/10/09 09:10:35;;;;;;;;;;;16.90;53.50;;;;;;5010822;28;89489;-46
2023/10/09 09:13:03;;;;;;;;;;;16.90;53.50;;;;;;5011344;28;87409;-54
2023/10/09 09:15:32;;;;;;;;;;;16.90;53.50;;;;;;5013814;28;87120;-51
2023/10/09 09:18:08;;;;;;;;;;;16.90;53.50;;;;;;5018852;28;88796;-51
2023/10/09 09:20:36;;;;;;;;;;;16.90;53.50;;;;;;5008456;28;90274;-54
2023/10/09 09:23:05;;;;;;;;;;;16.90;53.50;;;;;;5013353;28;87421;-49
2023/10/09 09:25:44;;;;;;;;;;;16.90;53.50;;;;;;5014236;28;88153;-48
2023/10/09 09:28:12;;;;;;;;;;;16.90;53.40;;;;;;5016327;28;89083;-53
2023/10/09 09:30:40;;;;;;;;;;;16.90;53.40;;;;;;5011585;28;88011;-49
2023/10/09 09:33:39;;;;;;;;;;;16.90;53.50;;;;;;5010523;28;88246;-51
2023/10/09 09:36:06;;;;;;;;;;;16.90;53.50;;;;;;5014715;28;87631;-56
2023/10/09 09:38:41;;;;;;;;;;;16.90;53.40;;;;;;5041217;27;90371;-50
2023/10/09 09:41:08;;;;;;;;;;;16.90;53.40;;;;;;5008461;28;88471;-48
2023/10/09 09:43:35;;;;;;;;;;;16.90;53.40;;;;;;5011520;28;87251;-54
2023/10/09 09:46:03;;;;;;;;;;;17.00;53.40;;;;;;5018075;28;89189;-55
2023/10/09 09:48:32;;;;;;;;;;;17.00;53.40;;;;;;5012651;28;87111;-53
2023/10/09 09:50:57;;;;;;;;;;;17.00;53.40;;;;;;5008876;28;87321;-47
2023/10/09 09:53:23;;;;;;;;;;;16.90;53.30;;;;;;5013872;28;88458;-51
2023/10/09 09:55:57;;;;;;;;;;;17.00;53.30;;;;;;5015253;28;87273;-54
2023/10/09 09:58:23;;;;;;;;;;;17.00;53.30;;;;;;5010318;28;88855;-54
2023/10/09 10:00:54;;;;;;;;;;;17.00;53.30;;;;;;5010927;28;89636;-56
2023/10/09 10:03:32;;;;;;;;;;;17.00;53.20;;;;;;5015547;28;86336;-56
2023/10/09 10:05:59;;;;;;;;;;;17.00;53.20;;;;;;5010542;28;88100;-51
2023/10/09 10:08:35;;;;;;;;;;;17.00;53.20;;;;;;5012927;28;88702;-57
2023/10/09 10:11:13;;;;;;;;;;;17.00;53.20;;;;;;5010560;28;88782;-49
2023/10/09 10:13:42;;;;;;;;;;;17.10;53.20;;;;;;5013970;28;89495;-53
2023/10/09 10:16:21;;;;;;;;;;;17.00;53.10;;;;;;5009572;28;87171;-49
2023/10/09 10:18:53;;;;;;;;;;;17.00;53.20;;;;;;5010939;28;87652;-54
2023/10/09 10:21:33;;;;;;;;;;;17.00;53.10;;;;;;5011085;28;89419;-52
2023/10/09 10:24:09;;;;;;;;;;;17.10;53.10;;;;;;5012953;28;87181;-52
2023/10/09 10:26:35;;;;;;;;;;;17.10;53.10;;;;;;5013109;28;87649;-53
2023/10/09 10:29:34;;;;;;;;;;;17.10;53.10;;;;;;5011833;28;87942;-53
2023/10/09 10:32:01;;;;;;;;;;;17.10;53.10;;;;;;5011407;28;87247;-51
2023/10/09 10:34:49;;;;;;;;;;;17.10;53.00;;;;;;5005882;28;91722;-53
2023/10/09 10:37:15;;;;;;;;;;;17.10;53.00;;;;;;5010069;28;88712;-53
2023/10/09 10:39:50;;;;;;;;;;;17.10;53.00;;;;;;5013255;28;88295;-54
2023/10/09 10:42:33;;;;;;;;;;;17.10;52.90;;;;;;5011387;28;88743;-51
2023/10/09 10:45:02;;;;;;;;;;;17.10;53.60;;;;;;5015698;28;87092;-50
2023/10/09 10:47:34;;;;;;;;;;;17.10;53.00;;;;;;5009480;28;87540;-54
2023/10/09 10:53:34;;;;;;;;;;;17.10;52.90;;;;;;5004183;28;87232;-52
2023/10/09 10:58:53;;;;;;;;;;;17.20;52.80;;;;;;5013542;28;86937;-50
2023/10/09 11:01:19;;;;;;;;;;;17.20;52.80;;;;;;5012014;28;87451;-56
2023/10/09 11:06:35;;;;;;;;;;;17.20;52.90;;;;;;5009524;28;87091;-50
2023/10/09 11:09:08;;;;;;;;;;;17.20;52.80;;;;;;5015482;28;87588;-54
2023/10/09 11:11:41;;;;;;;;;;;17.20;52.80;;;;;;5008972;28;89859;-50
2023/10/09 11:14:14;;;;;;;;;;;17.20;52.80;;;;;;5012387;28;87811;-50
2023/10/09 11:16:44;;;;;;;;;;;17.20;52.70;;;;;;5012546;28;87801;-48
2023/10/09 11:19:31;;;;;;;;;;;17.30;52.70;;;;;;5013503;28;87247;-51
2023/10/09 11:24:34;;;;;;;;;;;17.20;52.60;;;;;;5006999;28;87463;-51
2023/10/09 11:27:05;;;;;;;;;;;17.30;52.60;;;;;;5014459;28;88056;-53
2023/10/09 11:32:18;;;;;;;;;;;17.30;52.50;;;;;;5003214;28;88080;-51
2023/10/09 11:34:51;;;;;;;;;;;17.30;52.50;;;;;;5010928;28;87719;-50
2023/10/09 11:37:38;;;;;;;;;;;17.30;52.40;;;;;;5012912;28;87971;-53
2023/10/09 11:40:21;;;;;;;;;;;17.30;52.40;;;;;;5012212;28;88811;-48
2023/10/09 11:42:49;;;;;;;;;;;17.30;52.40;;;;;;5011061;28;87040;-50
2023/10/09 11:45:23;;;;;;;;;;;17.30;52.40;;;;;;5014106;28;89121;-52
2023/10/09 11:48:00;;;;;;;;;;;17.40;52.40;;;;;;5010627;28;86902;-50
2023/10/09 11:51:17;;;;;;;;;;;17.30;52.30;;;;;;5011213;28;87161;-49
2023/10/09 11:53:43;;;;;;;;;;;17.40;52.40;;;;;;5008764;28;87203;-50
2023/10/09 11:56:17;;;;;;;;;;;17.40;52.30;;;;;;5010279;28;88814;-52
2023/10/09 11:58:43;;;;;;;;;;;17.40;52.30;;;;;;5007675;28;89633;-49
2023/10/09 12:01:22;;;;;;;;;;;17.40;52.30;;;;;;5007929;28;88277;-54
2023/10/09 12:03:52;;;;;;;;;;;17.40;52.20;;;;;;5014846;28;87004;-46
2023/10/09 12:06:29;;;;;;;;;;;17.40;52.20;;;;;;5008453;28;89992;-55
2023/10/09 12:08:58;;;;;;;;;;;17.40;52.20;;;;;;5012551;28;87231;-50
2023/10/09 12:11:28;;;;;;;;;;;17.50;52.30;;;;;;5009181;28;88114;-49
2023/10/09 12:13:56;;;;;;;;;;;17.50;52.20;;;;;;5013165;28;88600;-54
2023/10/09 12:16:22;;;;;;;;;;;17.50;52.20;;;;;;5007471;28;87243;-55
2023/10/09 12:18:52;;;;;;;;;;;17.50;52.20;;;;;;5009655;28;87101;-50
2023/10/09 12:21:18;;;;;;;;;;;17.50;52.20;;;;;;5008767;28;90380;-56
2023/10/09 12:23:47;;;;;;;;;;;17.50;52.20;;;;;;5019321;28;87188;-57
2023/10/09 12:26:16;;;;;;;;;;;17.50;52.10;;;;;;5011855;28;87957;-51
2023/10/09 12:28:45;;;;;;;;;;;17.50;52.10;;;;;;5014217;28;87301;-53
2023/10/09 12:31:14;;;;;;;;;;;17.50;52.10;;;;;;5015257;28;88921;-49
2023/10/09 12:33:40;;;;;;;;;;;17.50;52.10;;;;;;5011205;28;88484;-53
2023/10/09 12:36:06;;;;;;;;;;;17.50;52.00;;;;;;5016768;28;87051;-54
2023/10/09 12:38:31;;;;;;;;;;;17.50;52.00;;;;;;5013178;28;87365;-53
2023/10/09 12:41:25;;;;;;;;;;;17.50;52.00;;;;;;5016116;28;88108;-51
2023/10/09 12:43:51;;;;;;;;;;;17.60;52.10;;;;;;5013629;28;87259;-56
2023/10/09 12:46:17;;;;;;;;;;;17.60;52.10;;;;;;5015131;28;88080;-55
2023/10/09 12:48:46;;;;;;;;;;;17.60;52.10;;;;;;5023039;28;87461;-54
2023/10/09 12:51:16;;;;;;;;;;;17.60;52.10;;;;;;5015099;28;87377;-53
2023/10/09 12:53:45;;;;;;;;;;;17.60;52.70;;;;;;5014805;28;88182;-47
2023/10/09 12:56:15;;;;;;;;;;;17.60;52.00;;;;;;5011200;28;87097;-56
2023/10/09 12:58:52;;;;;;;;;;;17.60;52.00;;;;;;5012445;28;88932;-53
2023/10/09 13:01:19;;;;;;;;;;;17.60;51.90;;;;;;5013521;28;89814;-55
2023/10/09 13:03:48;;;;;;;;;;;17.60;51.90;;;;;;5011983;28;88183;-51
2023/10/09 13:06:15;;;;;;;;;;;17.60;51.90;;;;;;5007939;28;88590;-53
2023/10/09 13:08:41;;;;;;;;;;;17.60;51.80;;;;;;5015134;28;87975;-53
2023/10/09 13:11:11;;;;;;;;;;;17.60;51.90;;;;;;5015361;28;88107;-53
2023/10/09 13:13:40;;;;;;;;;;;17.70;51.90;;;;;;5012914;28;87974;-56
2023/10/09 13:16:06;;;;;;;;;;;17.70;51.90;;;;;;5015901;28;87093;-49
2023/10/09 13:18:32;;;;;;;;;;;17.70;51.90;;;;;;5016505;28;87765;-46
2023/10/09 13:20:58;;;;;;;;;;;17.70;51.90;;;;;;5010580;28;88520;-49
2023/10/09 13:23:27;;;;;;;;;;;17.70;51.90;;;;;;5013039;28;87200;-46
2023/10/09 13:25:53;;;;;;;;;;;17.70;51.80;;;;;;5013220;28;87808;-56
2023/10/09 13:28:20;;;;;;;;;;;17.70;51.80;;;;;;5013804;28;87306;-57
2023/10/09 13:30:49;;;;;;;;;;;17.70;51.80;;;;;;5015624;28;87157;-51
2023/10/09 13:33:16;;;;;;;;;;;17.80;51.90;;;;;;5011394;28;88441;-48
2023/10/09 13:35:50;;;;;;;;;;;17.80;51.90;;;;;;5011601;28;88010;-51
2023/10/09 13:38:16;;;;;;;;;;;17.80;51.90;;;;;;5014120;28;87778;-52
2023/10/09 13:40:42;;;;;;;;;;;17.80;51.90;;;;;;5009031;28;88983;-55
2023/10/09 13:43:16;;;;;;;;;;;17.80;51.80;;;;;;5015437;28;87115;-53
2023/10/09 13:45:48;;;;;;;;;;;17.80;51.80;;;;;;5014299;28;87917;-51
2023/10/09 13:48:17;;;;;;;;;;;17.80;51.80;;;;;;5011540;28;88243;-53
2023/10/09 13:50:44;;;;;;;;;;;17.80;51.70;;;;;;5016201;28;88669;-54
2023/10/09 13:53:11;;;;;;;;;;;17.80;51.80;;;;;;5017056;28;87587;-52
2023/10/09 13:55:43;;;;;;;;;;;17.80;51.80;;;;;;5013980;28;87091;-59
2023/10/09 13:58:13;;;;;;;;;;;17.90;51.80;;;;;;5013542;28;89270;-51
2023/10/09 14:00:42;;;;;;;;;;;17.90;51.80;;;;;;5015236;28;90016;-56
2023/10/09 14:03:14;;;;;;;;;;;17.80;51.80;;;;;;5012093;28;87128;-53
2023/10/09 14:05:54;;;;;;;;;;;17.80;51.70;;;;;;5014368;28;87472;-49
2023/10/09 14:08:22;;;;;;;;;;;17.90;51.70;;;;;;5009536;28;88537;-54
2023/10/09 14:10:48;;;;;;;;;;;17.90;51.60;;;;;;5013037;28;87128;-56
2023/10/09 14:13:17;;;;;;;;;;;17.90;51.50;;;;;;5016872;28;87551;-52
2023/10/09 14:15:45;;;;;;;;;;;17.90;51.50;;;;;;5016014;28;87929;-54
2023/10/09 14:18:11;;;;;;;;;;;17.90;51.50;;;;;;5006155;28;88955;-50
2023/10/09 14:20:41;;;;;;;;;;;17.90;51.40;;;;;;5013285;28;88097;-55
2023/10/09 14:23:07;;;;;;;;;;;17.90;51.40;;;;;;5011220;28;87074;-52
2023/10/09 14:25:33;;;;;;;;;;;18.00;51.50;;;;;;5005926;28;88890;-53
2023/10/09 14:27:59;;;;;;;;;;;17.90;51.40;;;;;;5011778;28;87969;-48
2023/10/09 14:30:32;;;;;;;;;;;18.00;51.50;;;;;;5011168;28;87219;-47
2023/10/09 14:32:57;;;;;;;;;;;18.00;51.50;;;;;;5014166;28;89444;-50
2023/10/09 14:35:30;;;;;;;;;;;17.90;51.40;;;;;;5015234;28;88619;-51
2023/10/09 14:37:56;;;;;;;;;;;18.00;51.40;;;;;;5010623;28;88764;-54
2023/10/09 14:40:29;;;;;;;;;;;18.00;51.40;;;;;;5011458;28;89375;-51
2023/10/09 14:42:57;;;;;;;;;;;18.00;51.40;;;;;;5009893;28;86428;-50
2023/10/09 14:45:25;;;;;;;;;;;18.00;51.40;;;;;;5009026;28;89017;-49
2023/10/09 14:47:52;;;;;;;;;;;18.00;51.40;;;;;;5009966;28;88538;-54
2023/10/09 14:50:21;;;;;;;;;;;18.00;51.40;;;;;;5013247;28;88340;-50
2023/10/09 14:52:48;;;;;;;;;;;18.00;51.40;;;;;;5007744;28;88443;-48
2023/10/09 14:55:13;;;;;;;;;;;18.10;51.50;;;;;;5005271;28;88083;-48
2023/10/09 14:57:39;;;;;;;;;;;18.00;51.40;;;;;;5014640;28;86962;-55
2023/10/09 15:00:07;;;;;;;;;;;18.10;51.40;;;;;;5011713;28;88893;-50
2023/10/09 15:02:33;;;;;;;;;;;18.10;51.50;;;;;;5005827;28;87993;-50
2023/10/09 15:04:59;;;;;;;;;;;18.10;51.50;;;;;;5007770;28;88272;-46
2023/10/09 15:07:28;;;;;;;;;;;18.10;51.50;;;;;;5014898;28;88385;-55
2023/10/09 15:09:53;;;;;;;;;;;18.10;51.50;;;;;;5012536;28;87723;-57
2023/10/09 15:12:19;;;;;;;;;;;18.10;51.50;;;;;;5007455;28;87712;-57
2023/10/09 15:14:45;;;;;;;;;;;18.10;51.70;;;;;;5013861;28;90703;-54
2023/10/09 15:17:10;;;;;;;;;;;18.10;51.60;;;;;;5014069;28;87539;-50
2023/10/09 15:19:36;;;;;;;;;;;18.10;51.60;;;;;;5016073;28;87559;-51
2023/10/09 15:22:08;;;;;;;;;;;18.10;51.60;;;;;;5009317;28;89103;-51
2023/10/09 15:24:33;;;;;;;;;;;18.10;51.60;;;;;;5011751;28;89550;-56
2023/10/09 15:26:59;;;;;;;;;;;18.10;51.70;;;;;;5010277;28;88125;-49
2023/10/09 15:29:28;;;;;;;;;;;18.10;51.70;;;;;;5015355;28;88843;-50
2023/10/09 15:31:54;;;;;;;;;;;18.10;51.70;;;;;;5011846;28;87196;-52
2023/10/09 15:34:20;;;;;;;;;;;18.10;51.70;;;;;;5009436;28;87390;-49
2023/10/09 15:36:49;;;;;;;;;;;18.10;51.70;;;;;;5013700;28;87575;-47
2023/10/09 15:39:19;;;;;;;;;;;18.10;51.80;;;;;;5010637;28;88895;-46
2023/10/09 15:41:48;;;;;;;;;;;18.10;51.80;;;;;;5009233;28;89454;-51
2023/10/09 15:44:14;;;;;;;;;;;18.10;51.80;;;;;;5012786;28;87320;-51
2023/10/09 15:46:40;;;;;;;;;;;18.10;51.80;;;;;;5010397;28;89677;-58
2023/10/09 15:49:11;;;;;;;;;;;18.10;51.90;;;;;;5010824;28;87105;-56
2023/10/09 15:51:37;;;;;;;;;;;18.10;51.90;;;;;;5015106;28;89102;-46
2023/10/09 15:54:02;;;;;;;;;;;18.10;51.90;;;;;;5009729;28;87561;-44
2023/10/09 15:56:28;;;;;;;;;;;18.10;52.00;;;;;;5014686;28;86474;-46
2023/10/09 15:58:53;;;;;;;;;;;18.10;52.00;;;;;;5012055;28;87367;-45
2023/10/09 16:01:19;;;;;;;;;;;18.10;52.00;;;;;;5010571;28;87223;-54
2023/10/09 16:03:47;;;;;;;;;;;18.10;52.00;;;;;;5018530;28;88102;-51
2023/10/09 16:06:15;;;;;;;;;;;18.10;52.10;;;;;;5017121;28;88274;-48
2023/10/09 16:08:45;;;;;;;;;;;18.10;52.10;;;;;;5012189;28;87742;-45
2023/10/09 16:11:12;;;;;;;;;;;18.10;52.10;;;;;;5015670;28;87171;-47
2023/10/09 16:13:38;;;;;;;;;;;18.10;52.80;;;;;;5017315;28;87484;-54
2023/10/09 16:16:07;;;;;;;;;;;18.10;52.20;;;;;;5015318;28;87165;-52
2023/10/09 16:18:34;;;;;;;;;;;18.10;52.10;;;;;;5012351;28;88974;-51
2023/10/09 16:21:03;;;;;;;;;;;18.10;52.10;;;;;;5019229;28;86676;-49
2023/10/09 16:23:29;;;;;;;;;;;18.10;52.10;;;;;;5018700;28;87244;-52
2023/10/09 16:25:56;;;;;;;;;;;18.10;52.10;;;;;;5010308;28;87448;-48
2023/10/09 16:28:22;;;;;;;;;;;18.10;52.20;;;;;;5015350;28;89649;-48
2023/10/09 16:30:48;;;;;;;;;;;18.10;52.20;;;;;;5018318;28;88504;-43
2023/10/09 16:33:16;;;;;;;;;;;18.10;52.10;;;;;;5012018;28;88344;-47
2023/10/09 16:35:44;;;;;;;;;;;18.10;52.20;;;;;;5014900;28;87194;-50
2023/10/09 16:38:13;;;;;;;;;;;18.10;52.20;;;;;;5013643;28;88760;-51
2023/10/09 16:40:39;;;;;;;;;;;18.10;52.20;;;;;;5010851;28;89598;-47
2023/10/09 16:43:05;;;;;;;;;;;18.10;52.10;;;;;;5015454;28;87178;-51
2023/10/09 16:45:35;;;;;;;;;;;18.10;52.20;;;;;;5019276;28;89148;-54
2023/10/09 16:48:05;;;;;;;;;;;18.10;52.10;;;;;;5013019;28;87119;-53
2023/10/09 16:50:31;;;;;;;;;;;18.10;52.10;;;;;;5014618;28;87770;-53
2023/10/09 16:52:56;;;;;;;;;;;18.10;52.10;;;;;;5017304;28;89321;-48
2023/10/09 16:55:24;;;;;;;;;;;18.10;52.10;;;;;;5013712;28;87341;-52
2023/10/09 16:57:50;;;;;;;;;;;18.10;52.10;;;;;;5012713;28;87815;-51
2023/10/09 17:00:29;;;;;;;;;;;18.10;52.10;;;;;;5016723;28;88305;-55
2023/10/09 17:02:56;;;;;;;;;;;18.10;52.10;;;;;;5013140;28;87458;-48
2023/10/09 17:05:28;;;;;;;;;;;18.10;52.10;;;;;;5015136;28;89100;-49
2023/10/09 17:07:55;;;;;;;;;;;18.10;52.10;;;;;;5019428;28;88778;-55
2023/10/09 17:10:25;;;;;;;;;;;18.10;52.10;;;;;;5014756;28;89201;-50
2023/10/09 17:12:52;;;;;;;;;;;18.10;52.20;;;;;;5012048;28;89494;-50
2023/10/09 17:15:17;;;;;;;;;;;18.10;52.10;;;;;;5015999;28;87371;-58
2023/10/09 17:17:49;;;;;;;;;;;18.10;52.10;;;;;;5010392;28;87972;-47
2023/10/09 17:20:18;;;;;;;;;;;18.10;52.10;;;;;;5010593;28;87569;-55
2023/10/09 17:22:46;;;;;;;;;;;18.10;52.10;;;;;;5015059;28;87110;-58
2023/10/09 17:25:12;;;;;;;;;;;18.10;52.10;;;;;;5016619;28;88696;-54
2023/10/09 17:27:40;;;;;;;;;;;18.10;52.10;;;;;;5017733;28;88414;-51
2023/10/09 17:30:09;;;;;;;;;;;18.10;52.00;;;;;;5016321;28;87115;-50
2023/10/09 17:32:36;;;;;;;;;;;18.10;52.00;;;;;;5017184;28;89729;-51